createdAt,value
2022-11-29T00:00:04.557Z,39.53
2022-11-29T00:01:08.133Z,37.90
2022-11-29T00:02:11.080Z,41.90
2022-11-29T00:03:19.047Z,38.15
2022-11-29T00:04:22.020Z,33.88
2022-11-29T00:05:25.419Z,29.90
2022-11-29T00:06:32.019Z,34.00
2022-11-29T00:07:35.130Z,42.53
2022-11-29T00:08:38.426Z,34.75
2022-11-29T00:09:41.473Z,28.08
2022-11-29T00:10:44.447Z,34.63
2022-11-29T00:12:06.231Z,29.90
2022-11-29T00:14:17.234Z,27.20
2022-11-29T00:15:20.338Z,33.38
2022-11-29T00:16:23.338Z,27.73
2022-11-29T00:17:26.384Z,31.33
2022-11-29T00:18:29.251Z,37.90
2022-11-29T00:19:33.335Z,32.13
2022-11-29T00:20:38.939Z,31.27
2022-11-29T00:21:42.014Z,29.00
2022-11-29T00:22:44.868Z,31.65
2022-11-29T00:23:47.688Z,39.47
2022-11-29T00:24:50.664Z,31.62
2022-11-29T00:25:53.785Z,36.35
2022-11-29T00:26:56.783Z,32.25
2022-11-29T00:27:59.626Z,30.80
2022-11-29T00:29:02.670Z,30.25
2022-11-29T00:30:06.301Z,37.13
2022-11-29T00:31:25.268Z,33.05
2022-11-29T00:32:28.200Z,35.85
2022-11-29T00:33:31.466Z,30.17
2022-11-29T00:34:34.464Z,32.58
2022-11-29T00:35:37.384Z,38.03
2022-11-29T00:36:40.898Z,36.53
2022-11-29T00:37:43.760Z,35.33
2022-11-29T00:38:46.716Z,36.45
2022-11-29T00:39:49.664Z,31.35
2022-11-29T00:40:53.153Z,42.05
2022-11-29T00:41:56.450Z,31.15
2022-11-29T00:42:59.383Z,33.95
2022-11-29T00:44:02.271Z,33.08
2022-11-29T00:45:05.594Z,29.40
2022-11-29T00:46:09.246Z,31.65
2022-11-29T00:47:12.364Z,27.90
2022-11-29T00:48:15.232Z,29.52
2022-11-29T00:49:18.262Z,33.55
2022-11-29T00:50:21.261Z,31.65
2022-11-29T00:51:24.196Z,28.25
2022-11-29T00:52:27.160Z,32.28
2022-11-29T00:53:29.922Z,27.13
2022-11-29T00:54:33.011Z,33.60
2022-11-29T00:55:35.960Z,31.48
2022-11-29T00:56:42.801Z,33.25
2022-11-29T00:57:46.189Z,31.10
2022-11-29T00:58:49.662Z,34.97
2022-11-29T00:59:52.479Z,29.55
2022-11-29T01:00:55.836Z,37.35
2022-11-29T01:01:58.827Z,29.00
2022-11-29T01:03:02.290Z,30.00
2022-11-29T01:04:05.587Z,30.05
2022-11-29T01:05:08.817Z,33.72
2022-11-29T01:06:14.269Z,26.05
2022-11-29T01:07:17.241Z,27.00
2022-11-29T01:08:20.610Z,35.67
2022-11-29T01:09:23.462Z,31.62
2022-11-29T01:10:27.004Z,29.12
2022-11-29T01:11:29.947Z,29.67
2022-11-29T01:12:37.192Z,27.05
2022-11-29T01:13:40.186Z,28.73
2022-11-29T01:14:43.829Z,29.02
2022-11-29T01:15:46.820Z,27.40
2022-11-29T01:16:49.758Z,29.83
2022-11-29T01:17:53.697Z,31.08
2022-11-29T01:18:56.942Z,26.77
2022-11-29T01:20:00.222Z,27.50
2022-11-29T01:21:07.418Z,26.62
2022-11-29T01:22:10.458Z,28.27
2022-11-29T01:23:13.453Z,26.73
2022-11-29T01:24:16.404Z,24.87
2022-11-29T01:25:19.746Z,28.30
2022-11-29T01:26:28.687Z,27.15
2022-11-29T01:27:31.779Z,30.15
2022-11-29T01:28:36.109Z,28.35
2022-11-29T01:29:39.589Z,24.55
2022-11-29T01:30:42.490Z,27.75
2022-11-29T01:31:45.385Z,27.90
2022-11-29T01:32:48.339Z,24.83
2022-11-29T01:34:00.656Z,25.95
2022-11-29T01:35:05.980Z,23.48
2022-11-29T01:36:09.602Z,24.45
2022-11-29T01:37:15.935Z,24.25
2022-11-29T01:38:19.217Z,25.02
2022-11-29T01:39:22.141Z,24.12
2022-11-29T01:40:25.061Z,27.20
2022-11-29T01:41:31.343Z,27.02
2022-11-29T01:42:34.215Z,25.83
2022-11-29T01:44:05.780Z,29.70
2022-11-29T01:45:23.792Z,22.83
2022-11-29T01:46:29.546Z,27.15
2022-11-29T01:47:32.909Z,23.25
2022-11-29T01:48:35.782Z,24.52
2022-11-29T01:49:45.748Z,31.65
2022-11-29T01:50:52.058Z,30.37
2022-11-29T01:52:04.375Z,35.78
2022-11-29T01:53:08.986Z,32.72
2022-11-29T01:54:14.418Z,31.77
2022-11-29T01:55:17.463Z,31.40
2022-11-29T01:56:21.089Z,36.13
2022-11-29T01:57:27.831Z,34.15
2022-11-29T01:58:30.759Z,28.55
2022-11-29T01:59:36.294Z,29.05
2022-11-29T02:00:39.354Z,26.00
2022-11-29T02:01:42.624Z,35.28
2022-11-29T02:02:51.840Z,30.15
2022-11-29T02:03:54.973Z,41.15
2022-11-29T02:04:59.706Z,63.65
2022-11-29T02:06:04.791Z,58.35
2022-11-29T02:07:09.557Z,38.90
2022-11-29T02:08:14.874Z,87.88
2022-11-29T02:09:23.213Z,45.35
2022-11-29T02:10:44.258Z,55.30
2022-11-29T02:12:08.417Z,30.62
2022-11-29T02:13:20.746Z,33.47
2022-11-29T02:14:33.254Z,27.80
2022-11-29T02:16:07.628Z,25.25
2022-11-29T02:17:38.070Z,27.45
2022-11-29T02:19:14.783Z,28.50
2022-11-29T02:20:30.175Z,26.25
2022-11-29T02:22:06.979Z,25.75
2022-11-29T02:23:44.096Z,30.65
2022-11-29T02:24:58.102Z,25.83
2022-11-29T02:26:36.773Z,28.87
2022-11-29T02:28:26.737Z,56.67
2022-11-29T02:30:08.588Z,23.42
2022-11-29T02:31:42.421Z,28.80
2022-11-29T02:33:22.463Z,25.48
2022-11-29T02:35:12.945Z,24.02
2022-11-29T02:36:43.351Z,23.05
2022-11-29T02:37:49.336Z,19.20
2022-11-29T02:39:13.818Z,23.52
2022-11-29T02:40:38.942Z,30.65
2022-11-29T02:42:02.302Z,23.20
2022-11-29T02:43:14.093Z,24.10
2022-11-29T02:44:54.274Z,23.45
2022-11-29T02:46:22.437Z,21.27
2022-11-29T02:47:59.506Z,24.48
2022-11-29T02:49:20.771Z,24.80
2022-11-29T02:50:42.977Z,21.20
2022-11-29T02:52:02.423Z,22.13
2022-11-29T02:53:23.322Z,22.23
2022-11-29T02:54:37.627Z,20.47
2022-11-29T02:56:00.095Z,23.85
2022-11-29T02:57:26.348Z,21.23
2022-11-29T02:58:44.180Z,24.05
2022-11-29T03:00:08.979Z,22.50
2022-11-29T03:02:02.625Z,23.45
2022-11-29T03:03:33.615Z,21.42
2022-11-29T03:05:17.937Z,21.50
2022-11-29T03:06:39.732Z,21.12
2022-11-29T03:08:03.778Z,15.88
2022-11-29T03:09:15.577Z,18.73
2022-11-29T03:10:30.496Z,21.00
2022-11-29T03:11:48.381Z,17.95
2022-11-29T03:12:54.218Z,18.73
2022-11-29T03:14:05.978Z,20.45
2022-11-29T03:15:23.095Z,23.70
2022-11-29T03:16:57.065Z,22.87
2022-11-29T03:18:34.856Z,21.83
2022-11-29T03:20:04.693Z,26.60
2022-11-29T03:21:18.816Z,27.70
2022-11-29T03:22:21.655Z,29.83
2022-11-29T03:23:37.140Z,22.65
2022-11-29T03:24:58.785Z,28.50
2022-11-29T03:26:23.824Z,26.45
2022-11-29T03:27:41.384Z,27.62
2022-11-29T03:28:55.497Z,25.33
2022-11-29T03:30:05.708Z,25.50
2022-11-29T03:31:21.219Z,26.62
2022-11-29T03:32:30.223Z,23.80
2022-11-29T03:33:39.351Z,25.50
2022-11-29T03:34:51.750Z,22.40
2022-11-29T03:36:07.809Z,25.10
2022-11-29T03:37:18.048Z,27.87
2022-11-29T03:38:26.621Z,27.13
2022-11-29T03:39:56.951Z,24.17
2022-11-29T03:41:27.963Z,22.13
2022-11-29T03:42:36.738Z,26.58
2022-11-29T03:44:01.777Z,24.37
2022-11-29T03:45:39.241Z,26.65
2022-11-29T03:46:55.123Z,23.35
2022-11-29T03:48:33.257Z,25.58
2022-11-29T03:49:57.180Z,25.10
2022-11-29T03:51:11.630Z,26.20
2022-11-29T03:52:24.342Z,26.17
2022-11-29T03:53:52.200Z,23.85
2022-11-29T03:55:20.376Z,27.37
2022-11-29T03:56:29.108Z,24.83
2022-11-29T03:57:54.777Z,26.30
2022-11-29T03:59:00.415Z,27.27
2022-11-29T04:00:09.066Z,24.23
2022-11-29T04:01:21.222Z,26.50
2022-11-29T04:03:10.019Z,24.35
2022-11-29T04:04:45.577Z,26.12
2022-11-29T04:05:55.494Z,25.75
2022-11-29T04:07:01.298Z,30.88
2022-11-29T04:08:31.949Z,27.17
2022-11-29T04:09:42.298Z,23.85
2022-11-29T04:11:16.298Z,27.83
2022-11-29T04:12:22.454Z,24.95
2022-11-29T04:13:54.733Z,22.23
2022-11-29T04:16:24.774Z,29.92
2022-11-29T04:17:46.096Z,27.90
2022-11-29T04:19:17.415Z,48.95
2022-11-29T04:20:48.209Z,27.80
2022-11-29T04:22:13.094Z,28.95
2022-11-29T04:23:56.940Z,24.63
2022-11-29T04:25:30.945Z,29.75
2022-11-29T04:26:52.699Z,33.47
2022-11-29T04:28:27.737Z,22.65
2022-11-29T04:29:51.695Z,29.35
2022-11-29T04:31:02.840Z,41.33
2022-11-29T04:32:14.660Z,24.87
2022-11-29T04:34:06.426Z,23.77
2022-11-29T04:35:55.296Z,28.45
2022-11-29T04:37:23.120Z,21.10
2022-11-29T04:39:01.321Z,26.50
2022-11-29T04:40:41.505Z,32.72
2022-11-29T04:42:08.965Z,27.00
2022-11-29T04:43:39.634Z,29.33
2022-11-29T04:45:10.579Z,39.92
2022-11-29T04:46:27.984Z,27.35
2022-11-29T04:47:51.425Z,24.77
2022-11-29T04:49:09.178Z,47.00
2022-11-29T04:50:45.899Z,23.67
2022-11-29T04:52:10.584Z,26.70
2022-11-29T04:53:33.943Z,26.02
2022-11-29T04:55:05.226Z,32.63
2022-11-29T04:56:22.384Z,22.98
2022-11-29T04:57:46.578Z,28.75
2022-11-29T04:59:12.416Z,30.17
2022-11-29T05:00:23.349Z,32.03
2022-11-29T05:01:29.225Z,86.57
2022-11-29T05:02:53.318Z,47.22
2022-11-29T05:04:14.179Z,34.55
2022-11-29T05:05:17.074Z,44.03
2022-11-29T05:06:35.227Z,29.58
2022-11-29T05:07:53.404Z,39.95
2022-11-29T05:09:00.502Z,60.12
2022-11-29T05:10:22.066Z,30.27
2022-11-29T05:12:06.536Z,41.45
2022-11-29T05:13:15.252Z,43.20
2022-11-29T05:14:30.267Z,25.95
2022-11-29T05:15:45.556Z,100.78
2022-11-29T05:16:57.414Z,73.28
2022-11-29T05:18:10.779Z,70.93
2022-11-29T05:19:28.503Z,46.10
2022-11-29T05:21:05.547Z,60.20
2022-11-29T05:22:54.996Z,105.05
2022-11-29T05:24:16.527Z,52.67
2022-11-29T05:25:35.935Z,98.65
2022-11-29T05:26:50.688Z,92.60
2022-11-29T05:28:24.906Z,113.82
2022-11-29T05:29:47.417Z,77.50
2022-11-29T05:30:55.960Z,79.55
2022-11-29T05:32:28.929Z,101.95
2022-11-29T05:33:59.591Z,115.25
2022-11-29T05:35:11.173Z,122.80
2022-11-29T05:37:49.039Z,136.95
2022-11-29T05:39:06.473Z,114.12
2022-11-29T05:40:46.623Z,183.07
2022-11-29T05:42:06.538Z,209.55
2022-11-29T05:43:24.573Z,237.88
2022-11-29T05:44:44.877Z,200.32
2022-11-29T05:46:05.798Z,140.45
2022-11-29T05:47:10.513Z,117.73
2022-11-29T05:48:22.633Z,311.60
2022-11-29T05:49:40.653Z,124.43
2022-11-29T05:50:57.725Z,117.65
2022-11-29T05:52:16.467Z,156.07
2022-11-29T05:53:28.484Z,151.63
2022-11-29T05:54:41.137Z,185.30
2022-11-29T05:56:02.854Z,142.35
2022-11-29T05:57:29.404Z,225.90
2022-11-29T05:58:53.178Z,229.00
2022-11-29T05:59:59.501Z,121.43
2022-11-29T06:01:10.981Z,170.20
2022-11-29T06:02:44.940Z,233.82
2022-11-29T06:04:15.095Z,197.62
2022-11-29T06:05:32.200Z,159.90
2022-11-29T06:06:43.784Z,136.23
2022-11-29T06:08:08.664Z,121.72
2022-11-29T06:09:26.397Z,144.27
2022-11-29T06:10:34.066Z,161.23
2022-11-29T06:12:02.758Z,104.28
2022-11-29T06:13:35.839Z,132.93
2022-11-29T06:14:57.378Z,210.40
2022-11-29T06:16:03.168Z,190.25
2022-11-29T06:17:38.815Z,231.18
2022-11-29T06:18:42.250Z,184.02
2022-11-29T06:20:00.716Z,212.82
2022-11-29T06:21:14.959Z,201.43
2022-11-29T06:22:32.889Z,152.95
2022-11-29T06:23:43.454Z,202.07
2022-11-29T06:25:17.840Z,171.13
2022-11-29T06:26:29.427Z,161.95
2022-11-29T06:29:13.677Z,159.20
2022-11-29T06:30:24.270Z,111.45
2022-11-29T06:31:38.775Z,64.40
2022-11-29T06:33:07.349Z,160.45
2022-11-29T06:34:10.237Z,62.70
2022-11-29T06:35:46.671Z,88.28
2022-11-29T06:37:02.436Z,113.00
2022-11-29T06:38:31.518Z,155.87
2022-11-29T06:39:34.670Z,190.12
2022-11-29T06:40:37.787Z,115.53
2022-11-29T06:41:40.688Z,79.90
2022-11-29T06:42:44.150Z,239.00
2022-11-29T06:43:47.808Z,159.20
2022-11-29T06:44:51.226Z,214.00
2022-11-29T06:46:25.413Z,159.32
2022-11-29T06:47:41.652Z,117.13
2022-11-29T06:49:02.321Z,214.38
2022-11-29T06:50:17.417Z,94.28
2022-11-29T06:51:48.642Z,78.03
2022-11-29T06:53:11.085Z,36.55
2022-11-29T06:54:28.988Z,63.35
2022-11-29T06:55:53.664Z,89.68
2022-11-29T06:57:19.495Z,45.05
2022-11-29T06:58:32.891Z,137.60
2022-11-29T06:59:44.995Z,110.97
2022-11-29T07:01:01.476Z,139.02
2022-11-29T07:02:14.673Z,89.85
2022-11-29T07:03:35.771Z,39.72
2022-11-29T07:04:46.518Z,66.05
2022-11-29T07:05:49.967Z,77.53
2022-11-29T07:06:53.253Z,55.63
2022-11-29T07:08:10.820Z,34.90
2022-11-29T07:09:17.322Z,43.35
2022-11-29T07:10:21.143Z,57.72
2022-11-29T07:11:24.302Z,39.63
2022-11-29T07:12:27.421Z,72.20
2022-11-29T07:13:30.493Z,95.70
2022-11-29T07:14:33.568Z,36.88
2022-11-29T07:15:38.210Z,71.87
2022-11-29T07:16:57.352Z,45.83
2022-11-29T07:18:28.943Z,50.10
2022-11-29T07:19:43.000Z,41.47
2022-11-29T07:21:25.173Z,48.60
2022-11-29T07:22:42.994Z,51.45
2022-11-29T07:24:11.791Z,38.90
2022-11-29T07:25:51.649Z,26.85
2022-11-29T07:27:20.403Z,52.58
2022-11-29T07:28:48.908Z,55.03
2022-11-29T07:30:03.125Z,58.47
2022-11-29T07:31:32.165Z,33.38
2022-11-29T07:33:04.101Z,24.83
2022-11-29T07:34:26.024Z,24.08
2022-11-29T07:35:54.140Z,24.20
2022-11-29T07:37:29.797Z,53.28
2022-11-29T07:38:57.019Z,40.92
2022-11-29T07:40:15.844Z,30.25
2022-11-29T07:41:32.480Z,20.23
2022-11-29T07:43:03.455Z,58.72
2022-11-29T07:44:25.719Z,78.15
2022-11-29T07:45:34.243Z,53.42
2022-11-29T07:46:37.311Z,49.90
2022-11-29T07:47:40.732Z,30.70
2022-11-29T07:48:44.356Z,39.95
2022-11-29T07:49:48.339Z,38.40
2022-11-29T07:50:51.400Z,81.95
2022-11-29T07:51:55.872Z,80.12
2022-11-29T07:52:59.941Z,97.45
2022-11-29T07:54:03.073Z,84.03
2022-11-29T07:55:06.449Z,79.03
2022-11-29T07:56:12.825Z,47.83
2022-11-29T07:57:15.578Z,60.50
2022-11-29T07:58:19.365Z,45.70
2022-11-29T07:59:22.266Z,44.10
2022-11-29T08:00:26.075Z,81.50
2022-11-29T08:01:29.045Z,48.60
2022-11-29T08:02:33.994Z,41.63
2022-11-29T08:03:36.901Z,56.58
2022-11-29T08:04:44.697Z,43.75
2022-11-29T08:05:48.381Z,46.20
2022-11-29T08:06:51.632Z,69.55
2022-11-29T08:07:56.306Z,52.00
2022-11-29T08:09:00.704Z,65.12
2022-11-29T08:10:05.546Z,79.80
2022-11-29T08:11:12.425Z,73.78
2022-11-29T08:12:15.369Z,40.15
2022-11-29T08:13:20.783Z,42.83
2022-11-29T08:14:23.795Z,62.65
2022-11-29T08:15:26.778Z,36.72
2022-11-29T08:16:30.173Z,31.62
2022-11-29T08:17:33.154Z,28.12
2022-11-29T08:18:39.239Z,39.17
2022-11-29T08:19:42.055Z,39.15
2022-11-29T08:20:46.549Z,81.78
2022-11-29T08:21:51.349Z,56.42
2022-11-29T08:22:59.472Z,67.07
2022-11-29T08:24:05.609Z,42.33
2022-11-29T08:25:10.145Z,38.20
2022-11-29T08:26:14.209Z,41.13
2022-11-29T08:27:17.241Z,50.17
2022-11-29T08:28:20.285Z,42.80
2022-11-29T08:29:23.981Z,33.25
2022-11-29T08:30:26.876Z,36.80
2022-11-29T08:31:29.825Z,37.20
2022-11-29T08:32:34.483Z,38.70
2022-11-29T08:33:40.118Z,26.92
2022-11-29T08:34:43.133Z,31.95
2022-11-29T08:35:46.118Z,27.87
2022-11-29T08:36:49.443Z,29.63
2022-11-29T08:37:52.311Z,37.72
2022-11-29T08:39:02.315Z,32.83
2022-11-29T08:40:09.270Z,30.10
2022-11-29T08:41:14.617Z,26.67
2022-11-29T08:42:17.390Z,26.55
2022-11-29T08:43:20.197Z,27.23
2022-11-29T08:44:23.109Z,26.87
2022-11-29T08:45:25.979Z,25.58
2022-11-29T08:46:48.837Z,27.40
2022-11-29T08:47:51.635Z,24.70
2022-11-29T08:48:54.485Z,28.27
2022-11-29T08:50:03.383Z,26.25
2022-11-29T08:51:06.932Z,24.75
2022-11-29T08:52:28.574Z,29.02
2022-11-29T08:53:43.584Z,26.10
2022-11-29T08:54:46.665Z,26.73
2022-11-29T08:55:50.751Z,31.37
2022-11-29T08:57:31.443Z,30.30
2022-11-29T08:58:19.862Z,32.33
2022-11-29T08:59:22.826Z,30.98
2022-11-29T09:00:25.901Z,26.52
2022-11-29T09:01:29.655Z,26.17
2022-11-29T09:02:32.723Z,32.05
2022-11-29T09:03:54.255Z,28.40
2022-11-29T09:04:57.157Z,26.65
2022-11-29T09:06:12.543Z,29.33
2022-11-29T09:07:16.842Z,26.20
2022-11-29T09:08:20.190Z,36.72
2022-11-29T09:09:23.583Z,42.30
2022-11-29T09:10:26.856Z,30.33
2022-11-29T09:11:31.165Z,33.47
2022-11-29T09:12:37.979Z,29.37
2022-11-29T09:13:46.092Z,31.35
2022-11-29T09:14:49.689Z,28.55
2022-11-29T09:15:52.577Z,26.70
2022-11-29T09:16:55.649Z,26.10
2022-11-29T09:17:59.087Z,30.50
2022-11-29T09:19:03.168Z,24.27
2022-11-29T09:20:08.449Z,26.33
2022-11-29T09:21:14.518Z,27.60
2022-11-29T09:22:17.908Z,25.08
2022-11-29T09:23:21.129Z,29.45
2022-11-29T09:24:24.128Z,25.62
2022-11-29T09:25:27.752Z,25.23
2022-11-29T09:26:33.895Z,22.40
2022-11-29T09:27:36.807Z,25.10
2022-11-29T09:28:39.800Z,25.40
2022-11-29T09:29:42.701Z,23.70
2022-11-29T09:30:46.073Z,26.58
2022-11-29T09:31:49.014Z,22.83
2022-11-29T09:32:51.948Z,23.02
2022-11-29T09:33:55.504Z,25.80
2022-11-29T09:34:58.342Z,23.95
2022-11-29T09:36:01.818Z,21.08
2022-11-29T09:37:05.405Z,24.00
2022-11-29T09:38:10.845Z,23.52
2022-11-29T09:39:13.947Z,24.15
2022-11-29T09:40:23.781Z,25.30
2022-11-29T09:42:01.523Z,23.50
2022-11-29T09:43:31.921Z,25.83
2022-11-29T09:44:52.896Z,24.27
2022-11-29T09:46:27.889Z,25.42
2022-11-29T09:47:59.202Z,22.20
2022-11-29T09:49:49.709Z,24.02
2022-11-29T09:51:44.178Z,22.13
2022-11-29T09:53:21.970Z,21.95
2022-11-29T09:54:36.174Z,25.85
2022-11-29T09:56:06.579Z,22.08
2022-11-29T09:57:11.032Z,23.00
2022-11-29T09:58:21.114Z,20.75
2022-11-29T09:59:28.549Z,24.40
2022-11-29T10:00:35.915Z,22.55
2022-11-29T10:01:45.375Z,28.58
2022-11-29T10:02:57.422Z,21.83
2022-11-29T10:04:09.361Z,23.67
2022-11-29T10:05:47.219Z,24.67
2022-11-29T10:07:06.876Z,21.80
2022-11-29T10:08:24.959Z,20.12
2022-11-29T10:09:37.072Z,24.55
2022-11-29T10:10:46.939Z,26.25
2022-11-29T10:12:07.960Z,24.63
2022-11-29T10:13:34.550Z,23.40
2022-11-29T10:14:50.501Z,26.80
2022-11-29T10:15:57.199Z,20.40
2022-11-29T10:17:04.771Z,26.58
2022-11-29T10:18:10.636Z,26.35
2022-11-29T10:19:24.201Z,23.38
2022-11-29T10:20:35.302Z,24.45
2022-11-29T10:21:45.837Z,21.70
2022-11-29T10:23:29.994Z,23.00
2022-11-29T10:24:33.706Z,21.00
2022-11-29T10:25:45.630Z,22.23
2022-11-29T10:26:48.839Z,23.10
2022-11-29T10:27:52.952Z,21.40
2022-11-29T10:28:58.095Z,22.98
2022-11-29T10:30:02.986Z,22.25
2022-11-29T10:31:32.219Z,23.10
2022-11-29T10:32:35.046Z,22.48
2022-11-29T10:33:41.636Z,24.25
2022-11-29T10:34:45.125Z,24.35
2022-11-29T10:35:51.270Z,23.58
2022-11-29T10:37:04.122Z,23.58
2022-11-29T10:38:29.838Z,28.87
2022-11-29T10:39:33.752Z,27.60
2022-11-29T10:40:39.984Z,28.98
2022-11-29T10:41:43.091Z,28.30
2022-11-29T10:42:49.829Z,24.80
2022-11-29T10:43:56.979Z,28.38
2022-11-29T10:45:00.404Z,21.58
2022-11-29T10:46:04.617Z,27.55
2022-11-29T10:47:10.975Z,26.77
2022-11-29T10:48:19.974Z,26.12
2022-11-29T10:49:28.160Z,29.02
2022-11-29T10:50:34.360Z,27.10
2022-11-29T10:51:40.959Z,27.27
2022-11-29T10:52:44.101Z,26.52
2022-11-29T10:53:47.099Z,28.67
2022-11-29T10:54:55.845Z,28.45
2022-11-29T10:56:07.458Z,28.87
2022-11-29T10:58:28.375Z,29.48
2022-11-29T10:59:33.265Z,28.27
2022-11-29T11:00:52.252Z,30.60
2022-11-29T11:01:56.021Z,26.15
2022-11-29T11:03:17.251Z,30.77
2022-11-29T11:04:31.853Z,33.83
2022-11-29T11:05:34.896Z,30.48
2022-11-29T11:06:56.549Z,29.05
2022-11-29T11:07:59.517Z,31.30
2022-11-29T11:09:20.321Z,32.08
2022-11-29T11:10:28.168Z,30.73
2022-11-29T11:11:33.207Z,36.28
2022-11-29T11:14:17.341Z,31.05
2022-11-29T11:15:29.583Z,32.10
2022-11-29T11:16:37.262Z,32.42
2022-11-29T11:17:54.583Z,29.98
2022-11-29T11:18:57.669Z,29.05
2022-11-29T11:20:08.883Z,29.37
2022-11-29T11:21:18.539Z,30.00
2022-11-29T11:22:23.645Z,32.58
2022-11-29T11:23:30.976Z,28.85
2022-11-29T11:24:40.780Z,29.70
2022-11-29T11:25:43.673Z,28.80
2022-11-29T11:26:49.984Z,28.05
2022-11-29T11:27:57.222Z,30.10
2022-11-29T11:29:02.577Z,30.48
2022-11-29T11:30:18.852Z,28.27
2022-11-29T11:31:32.903Z,29.80
2022-11-29T11:32:35.875Z,29.73
2022-11-29T11:33:44.418Z,29.55
2022-11-29T11:34:59.627Z,27.25
2022-11-29T11:36:06.056Z,26.30
2022-11-29T11:37:15.095Z,32.83
2022-11-29T11:38:18.158Z,27.37
2022-11-29T11:39:23.714Z,29.90
2022-11-29T11:40:30.142Z,28.75
2022-11-29T11:41:59.497Z,30.75
2022-11-29T11:43:04.872Z,34.78
2022-11-29T11:44:58.538Z,28.85
2022-11-29T11:46:02.409Z,30.15
2022-11-29T11:47:07.269Z,29.42
2022-11-29T11:48:15.723Z,29.98
2022-11-29T11:49:29.990Z,30.60
2022-11-29T11:50:44.856Z,30.48
2022-11-29T11:51:47.846Z,32.58
2022-11-29T11:52:55.626Z,32.80
2022-11-29T11:53:58.570Z,34.50
2022-11-29T11:55:04.872Z,32.75
2022-11-29T11:56:14.030Z,39.63
2022-11-29T11:57:22.096Z,33.58
2022-11-29T11:58:31.980Z,29.83
2022-11-29T11:59:35.490Z,29.27
2022-11-29T12:01:06.656Z,30.83
2022-11-29T12:02:44.575Z,29.08
2022-11-29T12:04:03.017Z,32.03
2022-11-29T12:05:13.629Z,32.72
2022-11-29T12:06:46.579Z,28.90
2022-11-29T12:08:13.889Z,31.87
2022-11-29T12:09:43.857Z,34.45
2022-11-29T12:10:54.430Z,31.80
2022-11-29T12:12:17.976Z,34.47
2022-11-29T12:13:31.003Z,30.23
2022-11-29T12:14:36.662Z,36.53
2022-11-29T12:15:45.381Z,35.13
2022-11-29T12:16:54.183Z,38.22
2022-11-29T12:18:15.798Z,33.78
2022-11-29T12:19:25.404Z,36.33
2022-11-29T12:20:29.855Z,35.08
2022-11-29T12:21:40.855Z,33.17
2022-11-29T12:23:15.090Z,32.38
2022-11-29T12:24:40.272Z,33.35
2022-11-29T12:25:49.234Z,36.30
2022-11-29T12:26:57.539Z,35.17
2022-11-29T12:28:01.438Z,38.40
2022-11-29T12:29:04.386Z,36.88
2022-11-29T12:30:15.222Z,35.88
2022-11-29T12:31:55.299Z,39.03
2022-11-29T12:33:17.138Z,34.53
2022-11-29T12:34:29.484Z,36.05
2022-11-29T12:36:05.906Z,36.85
2022-11-29T12:37:42.645Z,36.45
2022-11-29T12:39:14.685Z,37.80
2022-11-29T12:40:26.821Z,37.05
2022-11-29T12:41:54.188Z,42.53
2022-11-29T12:43:46.852Z,36.63
2022-11-29T12:45:20.178Z,39.92
2022-11-29T12:46:26.406Z,36.17
2022-11-29T12:48:13.980Z,34.13
2022-11-29T12:49:55.853Z,35.33
2022-11-29T12:51:02.331Z,34.03
2022-11-29T12:52:18.806Z,31.67
2022-11-29T12:53:40.568Z,37.80
2022-11-29T12:55:02.382Z,39.67
2022-11-29T12:56:27.964Z,43.72
2022-11-29T12:57:30.817Z,36.75
2022-11-29T12:58:45.481Z,37.63
2022-11-29T13:00:09.738Z,41.30
2022-11-29T13:01:22.975Z,40.53
2022-11-29T13:03:01.704Z,40.25
2022-11-29T13:04:23.525Z,43.85
2022-11-29T13:05:37.002Z,43.97
2022-11-29T13:06:54.792Z,43.78
2022-11-29T13:08:26.614Z,50.03
2022-11-29T13:10:01.639Z,42.72
2022-11-29T13:11:14.453Z,39.38
2022-11-29T13:12:43.408Z,45.15
2022-11-29T13:14:40.955Z,50.90
2022-11-29T13:15:44.848Z,48.22
2022-11-29T13:16:59.279Z,47.55
2022-11-29T13:18:28.208Z,37.50
2022-11-29T13:19:50.565Z,45.58
2022-11-29T13:21:04.824Z,45.20
2022-11-29T13:22:21.572Z,36.63
2022-11-29T13:25:19.224Z,40.80
2022-11-29T13:26:25.545Z,40.65
2022-11-29T13:27:38.858Z,41.08
2022-11-29T13:28:43.270Z,45.12
2022-11-29T13:29:46.958Z,42.20
2022-11-29T13:30:50.632Z,50.90
2022-11-29T13:31:53.696Z,42.30
2022-11-29T13:33:03.241Z,41.30
2022-11-29T13:34:15.037Z,43.40
2022-11-29T13:35:23.548Z,42.80
2022-11-29T13:36:32.345Z,45.33
2022-11-29T13:37:51.995Z,47.10
2022-11-29T13:39:44.579Z,50.63
2022-11-29T13:40:56.644Z,46.80
2022-11-29T13:42:11.876Z,49.08
2022-11-29T13:43:46.506Z,44.83
2022-11-29T13:45:06.342Z,42.53
2022-11-29T13:46:28.129Z,40.03
2022-11-29T13:47:31.191Z,46.22
2022-11-29T13:48:48.079Z,44.17
2022-11-29T13:50:05.011Z,47.03
2022-11-29T13:51:28.538Z,43.13
2022-11-29T13:52:41.986Z,56.05
2022-11-29T13:53:49.387Z,49.72
2022-11-29T13:55:11.753Z,47.15
2022-11-29T13:56:33.051Z,44.70
2022-11-29T13:58:16.799Z,45.28
2022-11-29T13:59:30.914Z,47.67
2022-11-29T14:00:46.033Z,47.60
2022-11-29T14:01:51.790Z,44.70
2022-11-29T14:03:18.718Z,47.03
2022-11-29T14:04:39.680Z,48.63
2022-11-29T14:05:42.807Z,44.80
2022-11-29T14:06:48.274Z,46.80
2022-11-29T14:08:26.933Z,51.00
2022-11-29T14:09:35.507Z,44.75
2022-11-29T14:10:38.924Z,46.53
2022-11-29T14:11:49.827Z,45.10
2022-11-29T14:12:57.142Z,46.95
2022-11-29T14:14:16.632Z,47.17
2022-11-29T14:15:24.247Z,49.13
2022-11-29T14:16:36.698Z,44.45
2022-11-29T14:17:47.648Z,48.03
2022-11-29T14:19:06.210Z,46.17
2022-11-29T14:20:24.061Z,47.65
2022-11-29T14:21:46.888Z,50.53
2022-11-29T14:23:05.098Z,48.47
2022-11-29T14:24:40.097Z,48.08
2022-11-29T14:26:04.075Z,47.95
2022-11-29T14:27:10.363Z,49.20
2022-11-29T14:28:13.158Z,47.50
2022-11-29T14:29:51.187Z,52.90
2022-11-29T14:31:00.915Z,46.13
2022-11-29T14:32:04.030Z,53.17
2022-11-29T14:33:39.371Z,48.33
2022-11-29T14:34:47.325Z,50.63
2022-11-29T14:36:08.454Z,51.00
2022-11-29T14:37:26.526Z,53.90
2022-11-29T14:38:35.633Z,49.42
2022-11-29T14:39:38.486Z,49.28
2022-11-29T14:40:41.566Z,47.30
2022-11-29T14:42:06.693Z,47.58
2022-11-29T14:43:18.741Z,45.83
2022-11-29T14:44:29.674Z,50.33
2022-11-29T14:45:34.943Z,47.75
2022-11-29T14:46:38.170Z,48.17
2022-11-29T14:47:49.340Z,55.83
2022-11-29T14:48:55.267Z,53.35
2022-11-29T14:50:01.569Z,49.10
2022-11-29T14:51:09.345Z,49.00
2022-11-29T14:52:15.353Z,50.92
2022-11-29T14:53:34.784Z,50.80
2022-11-29T14:54:56.897Z,51.50
2022-11-29T14:56:32.082Z,45.45
2022-11-29T14:57:50.365Z,51.67
2022-11-29T14:59:33.616Z,51.30
2022-11-29T15:00:48.425Z,49.20
2022-11-29T15:01:51.622Z,46.80
2022-11-29T15:03:13.196Z,44.65
2022-11-29T15:04:16.059Z,56.10
2022-11-29T15:05:21.325Z,48.60
2022-11-29T15:06:27.457Z,49.08
2022-11-29T15:07:33.243Z,46.37
2022-11-29T15:08:41.066Z,47.53
2022-11-29T15:09:46.211Z,51.80
2022-11-29T15:11:26.336Z,50.22
2022-11-29T15:12:35.629Z,55.17
2022-11-29T15:13:47.142Z,48.28
2022-11-29T15:15:17.796Z,50.28
2022-11-29T15:16:37.260Z,48.53
2022-11-29T15:18:02.558Z,50.12
2022-11-29T15:19:26.965Z,50.95
2022-11-29T15:20:48.708Z,50.00
2022-11-29T15:22:10.628Z,52.03
2022-11-29T15:23:18.671Z,51.00
2022-11-29T15:24:26.776Z,54.70
2022-11-29T15:25:32.967Z,60.47
2022-11-29T15:26:36.134Z,51.15
2022-11-29T15:27:57.336Z,51.70
2022-11-29T15:29:14.203Z,54.78
2022-11-29T15:30:22.082Z,51.55
2022-11-29T15:31:24.946Z,51.42
2022-11-29T15:32:32.757Z,52.47
2022-11-29T15:33:40.862Z,50.90
2022-11-29T15:34:50.552Z,48.97
2022-11-29T15:35:57.059Z,53.85
2022-11-29T15:37:00.952Z,56.25
2022-11-29T15:38:04.210Z,54.08
2022-11-29T15:39:26.126Z,54.15
2022-11-29T15:41:42.915Z,54.33
2022-11-29T15:43:00.518Z,50.63
2022-11-29T15:44:07.702Z,55.15
2022-11-29T15:45:32.696Z,51.05
2022-11-29T15:46:36.374Z,52.30
2022-11-29T15:47:39.309Z,51.37
2022-11-29T15:48:42.249Z,55.38
2022-11-29T15:49:45.219Z,55.47
2022-11-29T15:51:14.799Z,53.05
2022-11-29T15:52:29.594Z,54.25
2022-11-29T15:53:48.245Z,53.70
2022-11-29T15:54:59.825Z,54.03
2022-11-29T15:57:35.512Z,52.80
2022-11-29T15:58:38.932Z,56.83
2022-11-29T15:59:50.367Z,59.20
2022-11-29T16:00:55.430Z,63.40
2022-11-29T16:02:03.008Z,59.05